sensor_id;sensor_type;location;lat;lon;timestamp;temperature;humidity
3602;DHT22;1815;50.950;6.920;2023-12-22T00:01:53;7.90;99.90
3602;DHT22;1815;50.950;6.920;2023-12-22T00:04:19;7.70;99.90
3602;DHT22;1815;50.950;6.920;2023-12-22T00:06:44;7.60;99.90
3602;DHT22;1815;50.950;6.920;2023-12-22T00:09:13;7.40;99.90
3602;DHT22;1815;50.950;6.920;2023-12-22T00:11:39;7.30;99.90
3602;DHT22;1815;50.950;6.920;2023-12-22T00:14:04;7.20;99.90
3602;DHT22;1815;50.950;6.920;2023-12-22T00:16:30;7.10;99.90
3602;DHT22;1815;50.950;6.920;2023-12-22T00:18:56;7.00;99.90
3602;DHT22;1815;50.950;6.920;2023-12-22T00:21:23;7.00;99.90
3602;DHT22;1815;50.950;6.920;2023-12-22T00:23:48;7.00;99.90
3602;DHT22;1815;50.950;6.920;2023-12-22T00:26:14;6.90;99.90
3602;DHT22;1815;50.950;6.920;2023-12-22T00:28:40;6.90;99.90
3602;DHT22;1815;50.950;6.920;2023-12-22T00:31:07;7.00;99.90
3602;DHT22;1815;50.950;6.920;2023-12-22T00:33:33;7.00;99.90
3602;DHT22;1815;50.950;6.920;2023-12-22T00:35:58;7.00;99.90
3602;DHT22;1815;50.950;6.920;2023-12-22T00:38:24;7.10;99.90
3602;DHT22;1815;50.950;6.920;2023-12-22T00:40:50;7.10;99.90
3602;DHT22;1815;50.950;6.920;2023-12-22T00:43:15;7.20;99.90
3602;DHT22;1815;50.950;6.920;2023-12-22T00:45:41;7.20;99.90
3602;DHT22;1815;50.950;6.920;2023-12-22T00:48:07;7.30;99.90
3602;DHT22;1815;50.950;6.920;2023-12-22T00:50:33;7.30;99.90
3602;DHT22;1815;50.950;6.920;2023-12-22T00:52:58;7.40;99.90
3602;DHT22;1815;50.950;6.920;2023-12-22T00:55:24;7.40;99.90
3602;DHT22;1815;50.950;6.920;2023-12-22T00:57:50;7.50;99.90
3602;DHT22;1815;50.950;6.920;2023-12-22T01:00:16;7.60;99.90
3602;DHT22;1815;50.950;6.920;2023-12-22T01:02:42;7.60;99.90
3602;DHT22;1815;50.950;6.920;2023-12-22T01:05:08;7.60;99.90
3602;DHT22;1815;50.950;6.920;2023-12-22T01:07:33;7.70;99.90
3602;DHT22;1815;50.950;6.920;2023-12-22T01:09:59;7.70;99.90
3602;DHT22;1815;50.950;6.920;2023-12-22T01:12:27;7.70;99.90
3602;DHT22;1815;50.950;6.920;2023-12-22T01:14:55;7.80;99.90
3602;DHT22;1815;50.950;6.920;2023-12-22T01:17:21;7.80;99.90
3602;DHT22;1815;50.950;6.920;2023-12-22T01:19:46;7.80;99.90
3602;DHT22;1815;50.950;6.920;2023-12-22T01:22:12;7.90;99.90
3602;DHT22;1815;50.950;6.920;2023-12-22T01:24:38;7.90;99.90
3602;DHT22;1815;50.950;6.920;2023-12-22T01:27:06;7.90;99.90
3602;DHT22;1815;50.950;6.920;2023-12-22T01:29:32;7.90;99.90
3602;DHT22;1815;50.950;6.920;2023-12-22T01:31:58;8.00;99.90
3602;DHT22;1815;50.950;6.920;2023-12-22T01:34:23;8.00;99.90
3602;DHT22;1815;50.950;6.920;2023-12-22T01:36:49;8.00;99.90
3602;DHT22;1815;50.950;6.920;2023-12-22T01:39:15;8.10;99.90
3602;DHT22;1815;50.950;6.920;2023-12-22T01:41:41;8.10;99.90
3602;DHT22;1815;50.950;6.920;2023-12-22T01:44:07;8.10;99.90
3602;DHT22;1815;50.950;6.920;2023-12-22T01:46:33;8.10;99.90
3602;DHT22;1815;50.950;6.920;2023-12-22T01:49:00;8.10;99.90
3602;DHT22;1815;50.950;6.920;2023-12-22T01:51:29;8.10;99.90
3602;DHT22;1815;50.950;6.920;2023-12-22T01:53:56;8.10;99.90
3602;DHT22;1815;50.950;6.920;2023-12-22T01:56:22;8.10;99.90
3602;DHT22;1815;50.950;6.920;2023-12-22T01:58:51;8.10;99.90
3602;DHT22;1815;50.950;6.920;2023-12-22T02:01:20;8.10;99.90
3602;DHT22;1815;50.950;6.920;2023-12-22T02:03:50;8.10;99.90
3602;DHT22;1815;50.950;6.920;2023-12-22T02:06:18;8.10;99.90
3602;DHT22;1815;50.950;6.920;2023-12-22T02:08:46;8.10;99.90
3602;DHT22;1815;50.950;6.920;2023-12-22T02:11:31;8.10;99.90
3602;DHT22;1815;50.950;6.920;2023-12-22T02:13:57;8.10;99.90
3602;DHT22;1815;50.950;6.920;2023-12-22T02:16:37;8.00;99.90
3602;DHT22;1815;50.950;6.920;2023-12-22T02:19:27;7.90;99.90
3602;DHT22;1815;50.950;6.920;2023-12-22T02:22:06;7.90;99.90
3602;DHT22;1815;50.950;6.920;2023-12-22T02:24:32;7.90;99.90
3602;DHT22;1815;50.950;6.920;2023-12-22T02:27:04;7.80;99.90
3602;DHT22;1815;50.950;6.920;2023-12-22T02:29:42;7.70;99.90
3602;DHT22;1815;50.950;6.920;2023-12-22T02:32:14;7.70;99.90
3602;DHT22;1815;50.950;6.920;2023-12-22T02:34:42;7.70;99.90
3602;DHT22;1815;50.950;6.920;2023-12-22T02:37:09;7.70;99.90
3602;DHT22;1815;50.950;6.920;2023-12-22T02:39:36;7.70;99.90
3602;DHT22;1815;50.950;6.920;2023-12-22T02:42:04;7.70;99.90
3602;DHT22;1815;50.950;6.920;2023-12-22T02:44:31;7.80;99.90
3602;DHT22;1815;50.950;6.920;2023-12-22T02:46:57;7.80;99.90
3602;DHT22;1815;50.950;6.920;2023-12-22T02:49:22;7.80;99.90
3602;DHT22;1815;50.950;6.920;2023-12-22T02:51:48;7.80;99.90
3602;DHT22;1815;50.950;6.920;2023-12-22T02:54:14;7.90;99.90
3602;DHT22;1815;50.950;6.920;2023-12-22T02:56:39;7.90;99.90
3602;DHT22;1815;50.950;6.920;2023-12-22T02:59:09;7.90;99.90
3602;DHT22;1815;50.950;6.920;2023-12-22T03:01:35;7.90;99.90
3602;DHT22;1815;50.950;6.920;2023-12-22T03:04:00;7.90;99.90
3602;DHT22;1815;50.950;6.920;2023-12-22T03:06:26;7.90;99.90
3602;DHT22;1815;50.950;6.920;2023-12-22T03:08:52;7.90;99.90
3602;DHT22;1815;50.950;6.920;2023-12-22T03:11:17;7.90;99.90
3602;DHT22;1815;50.950;6.920;2023-12-22T03:13:43;7.90;99.90
3602;DHT22;1815;50.950;6.920;2023-12-22T03:16:09;7.90;99.90
3602;DHT22;1815;50.950;6.920;2023-12-22T03:18:34;7.90;99.90
3602;DHT22;1815;50.950;6.920;2023-12-22T03:21:03;7.80;99.90
3602;DHT22;1815;50.950;6.920;2023-12-22T03:23:28;7.80;99.90
3602;DHT22;1815;50.950;6.920;2023-12-22T03:25:54;7.80;99.90
3602;DHT22;1815;50.950;6.920;2023-12-22T03:28:19;7.80;99.90
3602;DHT22;1815;50.950;6.920;2023-12-22T03:30:45;7.80;99.90
3602;DHT22;1815;50.950;6.920;2023-12-22T03:33:11;7.70;99.90
3602;DHT22;1815;50.950;6.920;2023-12-22T03:35:36;7.80;99.90
3602;DHT22;1815;50.950;6.920;2023-12-22T03:38:02;7.80;99.90
3602;DHT22;1815;50.950;6.920;2023-12-22T03:40:28;7.80;99.90
3602;DHT22;1815;50.950;6.920;2023-12-22T03:42:55;7.80;99.90
3602;DHT22;1815;50.950;6.920;2023-12-22T03:45:21;7.90;99.90
3602;DHT22;1815;50.950;6.920;2023-12-22T03:47:46;7.90;99.90
3602;DHT22;1815;50.950;6.920;2023-12-22T03:50:12;8.00;99.90
3602;DHT22;1815;50.950;6.920;2023-12-22T03:52:38;8.10;99.90
3602;DHT22;1815;50.950;6.920;2023-12-22T03:55:04;8.10;99.90
3602;DHT22;1815;50.950;6.920;2023-12-22T03:57:30;8.20;99.90
3602;DHT22;1815;50.950;6.920;2023-12-22T03:59:56;8.30;99.90
3602;DHT22;1815;50.950;6.920;2023-12-22T04:02:21;8.40;99.90
3602;DHT22;1815;50.950;6.920;2023-12-22T04:04:47;8.50;99.90
3602;DHT22;1815;50.950;6.920;2023-12-22T04:07:13;8.50;99.90
3602;DHT22;1815;50.950;6.920;2023-12-22T04:09:39;8.60;99.90
3602;DHT22;1815;50.950;6.920;2023-12-22T04:12:05;8.80;99.90
3602;DHT22;1815;50.950;6.920;2023-12-22T04:14:31;8.70;99.90
3602;DHT22;1815;50.950;6.920;2023-12-22T04:16:56;8.80;99.90
3602;DHT22;1815;50.950;6.920;2023-12-22T04:19:22;8.80;99.90
3602;DHT22;1815;50.950;6.920;2023-12-22T04:21:48;8.80;99.90
3602;DHT22;1815;50.950;6.920;2023-12-22T04:24:14;8.80;99.90
3602;DHT22;1815;50.950;6.920;2023-12-22T04:26:40;8.80;99.90
3602;DHT22;1815;50.950;6.920;2023-12-22T04:29:05;8.80;99.90
3602;DHT22;1815;50.950;6.920;2023-12-22T04:31:31;8.80;99.90
3602;DHT22;1815;50.950;6.920;2023-12-22T04:33:57;8.90;99.90
3602;DHT22;1815;50.950;6.920;2023-12-22T04:36:22;8.90;99.90
3602;DHT22;1815;50.950;6.920;2023-12-22T04:38:48;8.90;99.90
3602;DHT22;1815;50.950;6.920;2023-12-22T04:41:14;8.80;99.90
3602;DHT22;1815;50.950;6.920;2023-12-22T04:43:40;8.80;99.90
3602;DHT22;1815;50.950;6.920;2023-12-22T04:46:05;8.80;99.90
3602;DHT22;1815;50.950;6.920;2023-12-22T04:48:31;8.80;99.90
3602;DHT22;1815;50.950;6.920;2023-12-22T04:50:58;8.80;99.90
3602;DHT22;1815;50.950;6.920;2023-12-22T04:53:24;8.80;99.90
3602;DHT22;1815;50.950;6.920;2023-12-22T04:55:50;8.80;99.90
3602;DHT22;1815;50.950;6.920;2023-12-22T04:58:15;8.70;99.90
3602;DHT22;1815;50.950;6.920;2023-12-22T05:00:41;8.80;99.90
3602;DHT22;1815;50.950;6.920;2023-12-22T05:03:07;8.80;99.90
3602;DHT22;1815;50.950;6.920;2023-12-22T05:05:32;8.80;99.90
3602;DHT22;1815;50.950;6.920;2023-12-22T05:07:58;8.80;99.90
3602;DHT22;1815;50.950;6.920;2023-12-22T05:10:24;8.80;99.90
3602;DHT22;1815;50.950;6.920;2023-12-22T05:12:50;8.80;99.90
3602;DHT22;1815;50.950;6.920;2023-12-22T05:15:15;8.90;99.90
3602;DHT22;1815;50.950;6.920;2023-12-22T05:17:41;8.90;99.90
3602;DHT22;1815;50.950;6.920;2023-12-22T05:20:07;8.90;99.90
3602;DHT22;1815;50.950;6.920;2023-12-22T05:22:36;9.00;99.90
3602;DHT22;1815;50.950;6.920;2023-12-22T05:25:02;9.00;99.90
3602;DHT22;1815;50.950;6.920;2023-12-22T05:27:28;9.10;99.90
3602;DHT22;1815;50.950;6.920;2023-12-22T05:29:54;9.20;99.90
3602;DHT22;1815;50.950;6.920;2023-12-22T05:32:20;9.20;99.90
3602;DHT22;1815;50.950;6.920;2023-12-22T05:34:45;9.30;99.90
3602;DHT22;1815;50.950;6.920;2023-12-22T05:37:11;9.30;99.90
3602;DHT22;1815;50.950;6.920;2023-12-22T05:39:37;9.40;99.90
3602;DHT22;1815;50.950;6.920;2023-12-22T05:42:03;9.50;99.90
3602;DHT22;1815;50.950;6.920;2023-12-22T05:44:28;9.50;99.90
3602;DHT22;1815;50.950;6.920;2023-12-22T05:46:59;9.60;99.90
3602;DHT22;1815;50.950;6.920;2023-12-22T05:49:24;9.60;99.90
3602;DHT22;1815;50.950;6.920;2023-12-22T05:51:51;9.70;99.90
3602;DHT22;1815;50.950;6.920;2023-12-22T05:54:16;9.70;99.90
3602;DHT22;1815;50.950;6.920;2023-12-22T05:56:45;9.80;99.90
3602;DHT22;1815;50.950;6.920;2023-12-22T05:59:10;9.80;99.90
3602;DHT22;1815;50.950;6.920;2023-12-22T06:01:36;9.90;99.90
3602;DHT22;1815;50.950;6.920;2023-12-22T06:04:02;10.00;99.90
3602;DHT22;1815;50.950;6.920;2023-12-22T06:06:28;9.90;99.90
3602;DHT22;1815;50.950;6.920;2023-12-22T06:08:55;10.00;99.90
3602;DHT22;1815;50.950;6.920;2023-12-22T06:11:21;10.00;99.90
3602;DHT22;1815;50.950;6.920;2023-12-22T06:13:47;10.10;99.90
3602;DHT22;1815;50.950;6.920;2023-12-22T06:16:14;10.10;99.90
3602;DHT22;1815;50.950;6.920;2023-12-22T06:18:41;10.10;99.90
3602;DHT22;1815;50.950;6.920;2023-12-22T06:21:08;10.10;99.90
3602;DHT22;1815;50.950;6.920;2023-12-22T06:23:34;10.20;99.90
3602;DHT22;1815;50.950;6.920;2023-12-22T06:25:59;10.20;99.90
3602;DHT22;1815;50.950;6.920;2023-12-22T06:28:27;10.20;99.90
3602;DHT22;1815;50.950;6.920;2023-12-22T06:30:53;10.20;99.90
3602;DHT22;1815;50.950;6.920;2023-12-22T06:33:19;10.30;99.90
3602;DHT22;1815;50.950;6.920;2023-12-22T06:35:45;10.20;99.90
3602;DHT22;1815;50.950;6.920;2023-12-22T06:38:11;10.30;99.90
3602;DHT22;1815;50.950;6.920;2023-12-22T06:40:37;10.30;99.90
3602;DHT22;1815;50.950;6.920;2023-12-22T06:43:03;10.30;99.90
3602;DHT22;1815;50.950;6.920;2023-12-22T06:45:30;10.40;99.90
3602;DHT22;1815;50.950;6.920;2023-12-22T06:47:55;10.40;99.90
3602;DHT22;1815;50.950;6.920;2023-12-22T06:50:21;10.40;99.90
3602;DHT22;1815;50.950;6.920;2023-12-22T06:52:47;10.40;99.90
3602;DHT22;1815;50.950;6.920;2023-12-22T06:55:12;10.50;99.90
3602;DHT22;1815;50.950;6.920;2023-12-22T06:57:38;10.50;99.90
3602;DHT22;1815;50.950;6.920;2023-12-22T07:00:04;10.40;99.90
3602;DHT22;1815;50.950;6.920;2023-12-22T07:02:30;10.40;99.90
3602;DHT22;1815;50.950;6.920;2023-12-22T07:07:47;10.40;99.90
3602;DHT22;1815;50.950;6.920;2023-12-22T07:10:12;10.30;99.90
3602;DHT22;1815;50.950;6.920;2023-12-22T07:12:38;10.30;99.90
3602;DHT22;1815;50.950;6.920;2023-12-22T07:15:05;10.30;99.90
3602;DHT22;1815;50.950;6.920;2023-12-22T07:17:32;10.20;99.90
3602;DHT22;1815;50.950;6.920;2023-12-22T07:19:58;10.20;99.90
3602;DHT22;1815;50.950;6.920;2023-12-22T07:22:24;10.10;99.90
3602;DHT22;1815;50.950;6.920;2023-12-22T07:24:50;10.10;99.90
3602;DHT22;1815;50.950;6.920;2023-12-22T07:27:18;10.10;99.90
3602;DHT22;1815;50.950;6.920;2023-12-22T07:29:44;10.00;99.90
3602;DHT22;1815;50.950;6.920;2023-12-22T07:32:10;10.00;99.90
3602;DHT22;1815;50.950;6.920;2023-12-22T07:34:35;9.90;99.90
3602;DHT22;1815;50.950;6.920;2023-12-22T07:37:01;9.90;99.90
3602;DHT22;1815;50.950;6.920;2023-12-22T07:39:27;9.90;99.90
3602;DHT22;1815;50.950;6.920;2023-12-22T07:41:52;9.90;99.90
3602;DHT22;1815;50.950;6.920;2023-12-22T07:44:18;9.90;99.90
3602;DHT22;1815;50.950;6.920;2023-12-22T07:46:45;9.90;99.90
3602;DHT22;1815;50.950;6.920;2023-12-22T07:49:11;9.80;99.90
3602;DHT22;1815;50.950;6.920;2023-12-22T07:51:38;9.80;99.90
3602;DHT22;1815;50.950;6.920;2023-12-22T07:54:03;9.80;99.90
3602;DHT22;1815;50.950;6.920;2023-12-22T07:56:29;9.80;99.90
3602;DHT22;1815;50.950;6.920;2023-12-22T07:58:55;9.80;99.90
3602;DHT22;1815;50.950;6.920;2023-12-22T08:01:21;9.80;99.90
3602;DHT22;1815;50.950;6.920;2023-12-22T08:03:46;9.80;99.90
3602;DHT22;1815;50.950;6.920;2023-12-22T08:06:12;9.80;99.90
3602;DHT22;1815;50.950;6.920;2023-12-22T08:08:39;9.90;99.90
3602;DHT22;1815;50.950;6.920;2023-12-22T08:11:05;9.90;99.90
3602;DHT22;1815;50.950;6.920;2023-12-22T08:13:30;9.90;99.90
3602;DHT22;1815;50.950;6.920;2023-12-22T08:15:56;9.90;99.90
3602;DHT22;1815;50.950;6.920;2023-12-22T08:18:22;10.00;99.90
3602;DHT22;1815;50.950;6.920;2023-12-22T08:20:48;9.90;99.90
3602;DHT22;1815;50.950;6.920;2023-12-22T08:23:15;9.90;99.90
3602;DHT22;1815;50.950;6.920;2023-12-22T08:25:40;9.90;99.90
3602;DHT22;1815;50.950;6.920;2023-12-22T08:28:07;9.90;99.90
3602;DHT22;1815;50.950;6.920;2023-12-22T08:30:32;9.90;99.90
3602;DHT22;1815;50.950;6.920;2023-12-22T08:32:59;9.90;99.90
3602;DHT22;1815;50.950;6.920;2023-12-22T08:35:24;9.90;99.90
3602;DHT22;1815;50.950;6.920;2023-12-22T08:37:50;9.90;99.90
3602;DHT22;1815;50.950;6.920;2023-12-22T08:40:16;10.00;99.90
3602;DHT22;1815;50.950;6.920;2023-12-22T08:42:42;10.00;99.90
3602;DHT22;1815;50.950;6.920;2023-12-22T08:45:08;10.00;99.90
3602;DHT22;1815;50.950;6.920;2023-12-22T08:47:33;10.10;99.90
3602;DHT22;1815;50.950;6.920;2023-12-22T08:49:59;10.10;99.90
3602;DHT22;1815;50.950;6.920;2023-12-22T08:52:25;10.10;99.90
3602;DHT22;1815;50.950;6.920;2023-12-22T08:54:50;10.20;99.90
3602;DHT22;1815;50.950;6.920;2023-12-22T08:57:16;10.20;99.90
3602;DHT22;1815;50.950;6.920;2023-12-22T08:59:41;10.20;99.90
3602;DHT22;1815;50.950;6.920;2023-12-22T09:02:07;10.30;99.90
3602;DHT22;1815;50.950;6.920;2023-12-22T09:04:33;10.30;99.90
3602;DHT22;1815;50.950;6.920;2023-12-22T09:06:59;10.40;99.90
3602;DHT22;1815;50.950;6.920;2023-12-22T09:09:25;10.40;99.90
3602;DHT22;1815;50.950;6.920;2023-12-22T09:11:52;10.50;99.90
3602;DHT22;1815;50.950;6.920;2023-12-22T09:14:19;10.50;99.90
3602;DHT22;1815;50.950;6.920;2023-12-22T09:16:44;10.50;99.90
3602;DHT22;1815;50.950;6.920;2023-12-22T09:19:11;10.50;99.90
3602;DHT22;1815;50.950;6.920;2023-12-22T09:21:36;10.60;99.90
3602;DHT22;1815;50.950;6.920;2023-12-22T09:24:02;10.60;99.90
3602;DHT22;1815;50.950;6.920;2023-12-22T09:26:28;10.60;99.90
3602;DHT22;1815;50.950;6.920;2023-12-22T09:28:55;10.60;99.90
3602;DHT22;1815;50.950;6.920;2023-12-22T09:31:20;10.70;99.90
3602;DHT22;1815;50.950;6.920;2023-12-22T09:33:47;10.70;99.90
3602;DHT22;1815;50.950;6.920;2023-12-22T09:36:14;10.80;99.90
3602;DHT22;1815;50.950;6.920;2023-12-22T09:38:40;10.80;99.90
3602;DHT22;1815;50.950;6.920;2023-12-22T09:41:07;10.90;99.90
3602;DHT22;1815;50.950;6.920;2023-12-22T09:43:35;10.90;99.90
3602;DHT22;1815;50.950;6.920;2023-12-22T09:46:02;10.90;99.90
3602;DHT22;1815;50.950;6.920;2023-12-22T09:48:29;11.00;99.90
3602;DHT22;1815;50.950;6.920;2023-12-22T09:50:56;11.00;99.90
3602;DHT22;1815;50.950;6.920;2023-12-22T09:53:24;11.10;99.90
3602;DHT22;1815;50.950;6.920;2023-12-22T09:55:50;11.10;99.90
3602;DHT22;1815;50.950;6.920;2023-12-22T09:58:16;11.20;99.90
3602;DHT22;1815;50.950;6.920;2023-12-22T10:00:43;11.20;99.90
3602;DHT22;1815;50.950;6.920;2023-12-22T10:03:11;11.30;99.90
3602;DHT22;1815;50.950;6.920;2023-12-22T10:05:39;11.30;99.90
3602;DHT22;1815;50.950;6.920;2023-12-22T10:08:06;11.30;99.90
3602;DHT22;1815;50.950;6.920;2023-12-22T10:10:32;11.30;99.90
3602;DHT22;1815;50.950;6.920;2023-12-22T10:12:59;11.40;99.90
3602;DHT22;1815;50.950;6.920;2023-12-22T10:15:26;11.40;99.90
3602;DHT22;1815;50.950;6.920;2023-12-22T10:17:53;11.40;99.90
3602;DHT22;1815;50.950;6.920;2023-12-22T10:20:19;11.50;99.90
3602;DHT22;1815;50.950;6.920;2023-12-22T10:22:45;11.50;99.90
3602;DHT22;1815;50.950;6.920;2023-12-22T10:25:15;11.50;99.90
3602;DHT22;1815;50.950;6.920;2023-12-22T10:27:42;11.50;99.90
3602;DHT22;1815;50.950;6.920;2023-12-22T10:30:09;11.50;99.90
3602;DHT22;1815;50.950;6.920;2023-12-22T10:32:40;11.50;99.90
3602;DHT22;1815;50.950;6.920;2023-12-22T10:35:08;11.50;99.90
3602;DHT22;1815;50.950;6.920;2023-12-22T10:37:34;11.50;99.90
3602;DHT22;1815;50.950;6.920;2023-12-22T10:40:00;11.50;99.90
3602;DHT22;1815;50.950;6.920;2023-12-22T10:42:29;11.50;99.90
3602;DHT22;1815;50.950;6.920;2023-12-22T10:44:55;11.50;99.90
3602;DHT22;1815;50.950;6.920;2023-12-22T10:47:22;11.50;99.90
3602;DHT22;1815;50.950;6.920;2023-12-22T10:49:48;11.50;99.90
3602;DHT22;1815;50.950;6.920;2023-12-22T10:52:17;11.50;99.90
3602;DHT22;1815;50.950;6.920;2023-12-22T10:54:43;11.50;99.90
3602;DHT22;1815;50.950;6.920;2023-12-22T10:57:10;11.50;99.90
3602;DHT22;1815;50.950;6.920;2023-12-22T10:59:46;11.50;99.90
3602;DHT22;1815;50.950;6.920;2023-12-22T11:02:16;11.50;99.90
3602;DHT22;1815;50.950;6.920;2023-12-22T11:04:56;11.50;99.90
3602;DHT22;1815;50.950;6.920;2023-12-22T11:07:24;11.50;99.90
3602;DHT22;1815;50.950;6.920;2023-12-22T11:09:56;11.50;99.90
3602;DHT22;1815;50.950;6.920;2023-12-22T11:12:21;11.50;99.90
3602;DHT22;1815;50.950;6.920;2023-12-22T11:14:48;11.60;99.90
3602;DHT22;1815;50.950;6.920;2023-12-22T11:17:19;11.60;99.90
3602;DHT22;1815;50.950;6.920;2023-12-22T11:19:49;11.70;99.90
3602;DHT22;1815;50.950;6.920;2023-12-22T11:22:17;11.70;99.90
3602;DHT22;1815;50.950;6.920;2023-12-22T11:24:47;11.70;99.90
3602;DHT22;1815;50.950;6.920;2023-12-22T11:27:17;11.80;99.90
3602;DHT22;1815;50.950;6.920;2023-12-22T11:29:49;11.80;99.90
3602;DHT22;1815;50.950;6.920;2023-12-22T11:32:17;11.80;99.90
3602;DHT22;1815;50.950;6.920;2023-12-22T11:34:44;11.80;99.90
3602;DHT22;1815;50.950;6.920;2023-12-22T11:37:11;11.80;99.90
3602;DHT22;1815;50.950;6.920;2023-12-22T11:39:42;11.90;99.90
3602;DHT22;1815;50.950;6.920;2023-12-22T11:42:16;11.90;99.90
3602;DHT22;1815;50.950;6.920;2023-12-22T11:44:42;11.90;99.90
3602;DHT22;1815;50.950;6.920;2023-12-22T11:47:10;12.00;99.90
3602;DHT22;1815;50.950;6.920;2023-12-22T11:49:37;12.00;99.90
3602;DHT22;1815;50.950;6.920;2023-12-22T11:52:16;12.10;99.90
3602;DHT22;1815;50.950;6.920;2023-12-22T11:54:49;12.10;99.90
3602;DHT22;1815;50.950;6.920;2023-12-22T12:02:39;12.40;99.90
3602;DHT22;1815;50.950;6.920;2023-12-22T12:05:08;12.40;99.90
3602;DHT22;1815;50.950;6.920;2023-12-22T12:07:38;12.40;99.90
3602;DHT22;1815;50.950;6.920;2023-12-22T12:10:12;12.40;99.90
3602;DHT22;1815;50.950;6.920;2023-12-22T12:12:38;12.50;99.90
3602;DHT22;1815;50.950;6.920;2023-12-22T12:15:13;12.60;99.90
3602;DHT22;1815;50.950;6.920;2023-12-22T12:17:42;12.60;99.90
3602;DHT22;1815;50.950;6.920;2023-12-22T12:20:10;12.70;99.90
3602;DHT22;1815;50.950;6.920;2023-12-22T12:22:37;12.70;99.90
3602;DHT22;1815;50.950;6.920;2023-12-22T12:25:08;12.70;99.90
3602;DHT22;1815;50.950;6.920;2023-12-22T12:27:36;12.70;99.90
3602;DHT22;1815;50.950;6.920;2023-12-22T12:30:11;12.70;99.90
3602;DHT22;1815;50.950;6.920;2023-12-22T12:32:36;12.70;99.90
3602;DHT22;1815;50.950;6.920;2023-12-22T12:35:03;12.70;99.90
3602;DHT22;1815;50.950;6.920;2023-12-22T12:37:29;12.80;99.90
3602;DHT22;1815;50.950;6.920;2023-12-22T12:39:58;12.80;99.90
3602;DHT22;1815;50.950;6.920;2023-12-22T12:42:28;12.80;99.90
3602;DHT22;1815;50.950;6.920;2023-12-22T12:44:56;12.80;99.90
3602;DHT22;1815;50.950;6.920;2023-12-22T12:47:21;12.80;99.90
3602;DHT22;1815;50.950;6.920;2023-12-22T12:49:59;12.90;99.90
3602;DHT22;1815;50.950;6.920;2023-12-22T12:52:26;12.90;99.90
3602;DHT22;1815;50.950;6.920;2023-12-22T12:54:52;13.00;99.90
3602;DHT22;1815;50.950;6.920;2023-12-22T12:57:18;13.00;99.90
3602;DHT22;1815;50.950;6.920;2023-12-22T12:59:49;13.10;99.90
3602;DHT22;1815;50.950;6.920;2023-12-22T13:02:16;13.10;99.90
3602;DHT22;1815;50.950;6.920;2023-12-22T13:04:42;13.10;99.90
3602;DHT22;1815;50.950;6.920;2023-12-22T13:07:08;13.20;99.90
3602;DHT22;1815;50.950;6.920;2023-12-22T13:09:36;13.20;99.90
3602;DHT22;1815;50.950;6.920;2023-12-22T13:12:03;13.20;99.90
3602;DHT22;1815;50.950;6.920;2023-12-22T13:14:29;13.20;99.90
3602;DHT22;1815;50.950;6.920;2023-12-22T13:16:56;13.20;99.90
3602;DHT22;1815;50.950;6.920;2023-12-22T13:19:23;13.20;99.90
3602;DHT22;1815;50.950;6.920;2023-12-22T13:21:55;13.20;99.90
3602;DHT22;1815;50.950;6.920;2023-12-22T13:24:22;13.30;99.90
3602;DHT22;1815;50.950;6.920;2023-12-22T13:27:04;13.30;99.90
3602;DHT22;1815;50.950;6.920;2023-12-22T13:29:45;13.30;99.90
3602;DHT22;1815;50.950;6.920;2023-12-22T13:32:20;13.30;99.90
3602;DHT22;1815;50.950;6.920;2023-12-22T13:34:53;13.40;99.90
3602;DHT22;1815;50.950;6.920;2023-12-22T13:37:19;13.30;99.90
3602;DHT22;1815;50.950;6.920;2023-12-22T13:39:50;13.20;99.90
3602;DHT22;1815;50.950;6.920;2023-12-22T13:42:17;13.30;99.90
3602;DHT22;1815;50.950;6.920;2023-12-22T13:44:44;13.30;99.90
3602;DHT22;1815;50.950;6.920;2023-12-22T13:47:15;13.20;99.90
3602;DHT22;1815;50.950;6.920;2023-12-22T13:49:42;13.20;99.90
3602;DHT22;1815;50.950;6.920;2023-12-22T13:52:08;13.20;99.90
3602;DHT22;1815;50.950;6.920;2023-12-22T13:54:34;13.20;99.90
3602;DHT22;1815;50.950;6.920;2023-12-22T13:57:00;13.20;99.90
3602;DHT22;1815;50.950;6.920;2023-12-22T13:59:34;13.20;99.90
3602;DHT22;1815;50.950;6.920;2023-12-22T14:02:00;13.20;99.90
3602;DHT22;1815;50.950;6.920;2023-12-22T14:04:26;13.20;99.90
3602;DHT22;1815;50.950;6.920;2023-12-22T14:06:52;13.20;99.90
3602;DHT22;1815;50.950;6.920;2023-12-22T14:09:18;13.20;99.90
3602;DHT22;1815;50.950;6.920;2023-12-22T14:11:47;13.20;99.90
3602;DHT22;1815;50.950;6.920;2023-12-22T14:14:13;13.10;99.90
3602;DHT22;1815;50.950;6.920;2023-12-22T14:16:40;13.00;99.90
3602;DHT22;1815;50.950;6.920;2023-12-22T14:19:06;13.00;99.90
3602;DHT22;1815;50.950;6.920;2023-12-22T14:21:31;12.90;99.90
3602;DHT22;1815;50.950;6.920;2023-12-22T14:23:57;12.80;99.90
3602;DHT22;1815;50.950;6.920;2023-12-22T14:26:23;12.80;99.90
3602;DHT22;1815;50.950;6.920;2023-12-22T14:28:48;12.80;99.90
3602;DHT22;1815;50.950;6.920;2023-12-22T14:31:17;12.70;99.90
3602;DHT22;1815;50.950;6.920;2023-12-22T14:33:42;12.60;99.90
3602;DHT22;1815;50.950;6.920;2023-12-22T14:36:08;12.60;99.90
3602;DHT22;1815;50.950;6.920;2023-12-22T14:38:40;12.50;99.90
3602;DHT22;1815;50.950;6.920;2023-12-22T14:41:06;12.50;99.90
3602;DHT22;1815;50.950;6.920;2023-12-22T14:43:32;12.50;99.90
3602;DHT22;1815;50.950;6.920;2023-12-22T14:45:58;12.50;99.90
3602;DHT22;1815;50.950;6.920;2023-12-22T14:48:23;12.40;99.90
3602;DHT22;1815;50.950;6.920;2023-12-22T14:50:49;12.30;99.90
3602;DHT22;1815;50.950;6.920;2023-12-22T14:53:15;12.30;99.90
3602;DHT22;1815;50.950;6.920;2023-12-22T14:55:41;12.30;99.90
3602;DHT22;1815;50.950;6.920;2023-12-22T14:58:06;12.30;99.90
3602;DHT22;1815;50.950;6.920;2023-12-22T15:00:34;12.30;99.90
3602;DHT22;1815;50.950;6.920;2023-12-22T15:03:00;12.30;99.90
3602;DHT22;1815;50.950;6.920;2023-12-22T15:05:29;12.40;99.90
3602;DHT22;1815;50.950;6.920;2023-12-22T15:07:58;12.30;99.90
3602;DHT22;1815;50.950;6.920;2023-12-22T15:10:24;12.30;99.90
3602;DHT22;1815;50.950;6.920;2023-12-22T15:12:49;12.30;99.90
3602;DHT22;1815;50.950;6.920;2023-12-22T15:15:15;12.30;99.90
3602;DHT22;1815;50.950;6.920;2023-12-22T15:17:41;12.20;99.90
3602;DHT22;1815;50.950;6.920;2023-12-22T15:20:07;12.20;99.90
3602;DHT22;1815;50.950;6.920;2023-12-22T15:22:34;12.20;99.90
3602;DHT22;1815;50.950;6.920;2023-12-22T15:25:00;12.10;99.90
3602;DHT22;1815;50.950;6.920;2023-12-22T15:27:26;12.10;99.90
3602;DHT22;1815;50.950;6.920;2023-12-22T15:29:52;12.00;99.90
3602;DHT22;1815;50.950;6.920;2023-12-22T15:32:19;12.00;99.90
3602;DHT22;1815;50.950;6.920;2023-12-22T15:34:44;12.00;99.90
3602;DHT22;1815;50.950;6.920;2023-12-22T15:37:11;12.00;99.90
3602;DHT22;1815;50.950;6.920;2023-12-22T15:39:37;12.00;99.90
3602;DHT22;1815;50.950;6.920;2023-12-22T15:42:03;12.00;99.90
3602;DHT22;1815;50.950;6.920;2023-12-22T15:44:29;11.90;99.90
3602;DHT22;1815;50.950;6.920;2023-12-22T15:46:55;12.00;99.90
3602;DHT22;1815;50.950;6.920;2023-12-22T15:49:20;11.90;99.90
3602;DHT22;1815;50.950;6.920;2023-12-22T15:51:46;11.90;99.90
3602;DHT22;1815;50.950;6.920;2023-12-22T15:54:12;11.90;99.90
3602;DHT22;1815;50.950;6.920;2023-12-22T15:56:37;11.90;99.90
3602;DHT22;1815;50.950;6.920;2023-12-22T15:59:03;11.90;99.90
3602;DHT22;1815;50.950;6.920;2023-12-22T16:01:29;11.90;99.90
3602;DHT22;1815;50.950;6.920;2023-12-22T16:03:55;11.90;99.90
3602;DHT22;1815;50.950;6.920;2023-12-22T16:06:20;11.90;99.90
3602;DHT22;1815;50.950;6.920;2023-12-22T16:08:46;11.90;99.90
3602;DHT22;1815;50.950;6.920;2023-12-22T16:11:12;11.90;99.90
3602;DHT22;1815;50.950;6.920;2023-12-22T16:13:38;11.90;99.90
3602;DHT22;1815;50.950;6.920;2023-12-22T16:16:03;11.90;99.90